createdAt,value
2017-09-11T00:01:41.864Z,88.20
2017-09-11T00:04:09.564Z,87.30
2017-09-11T00:06:37.227Z,87.30
2017-09-11T00:09:04.972Z,86.90
2017-09-11T00:11:32.635Z,86.90
2017-09-11T00:14:00.345Z,86.80
2017-09-11T00:16:28.776Z,87.30
2017-09-11T00:18:56.498Z,86.50
2017-09-11T00:21:24.929Z,86.70
2017-09-11T00:23:52.600Z,86.60
2017-09-11T00:26:51.947Z,86.10
2017-09-11T00:29:20.414Z,87.10
2017-09-11T00:31:48.851Z,86.80
2017-09-11T00:34:16.592Z,86.80
2017-09-11T00:36:44.270Z,87.10
2017-09-11T00:39:11.944Z,87.40
2017-09-11T00:41:39.711Z,86.70
2017-09-11T00:44:07.392Z,86.20
2017-09-11T00:46:35.919Z,86.60
2017-09-11T00:49:03.667Z,86.50
2017-09-11T00:51:31.445Z,87.10
2017-09-11T00:53:59.183Z,86.90
2017-09-11T00:56:26.903Z,87.00
2017-09-11T00:58:54.589Z,86.70
2017-09-11T01:01:22.317Z,87.10
2017-09-11T01:03:50.008Z,86.70
2017-09-11T01:06:20.178Z,85.90
2017-09-11T01:08:47.987Z,85.80
2017-09-11T01:11:16.459Z,86.00
2017-09-11T01:13:44.879Z,86.10
2017-09-11T01:16:12.635Z,86.10
2017-09-11T01:18:40.291Z,85.60
2017-09-11T01:21:08.063Z,85.00
2017-09-11T01:23:35.765Z,84.50
2017-09-11T01:26:03.524Z,84.40
2017-09-11T01:28:31.247Z,84.20
2017-09-11T01:30:59.027Z,84.80
2017-09-11T01:33:28.194Z,85.00
2017-09-11T01:35:55.847Z,84.80
2017-09-11T01:38:23.551Z,84.60
2017-09-11T01:40:51.214Z,85.00
2017-09-11T01:43:18.917Z,85.10
2017-09-11T01:45:46.575Z,85.10
2017-09-11T01:48:14.288Z,85.30
2017-09-11T01:50:41.963Z,85.40
2017-09-11T01:53:10.470Z,85.90
2017-09-11T01:55:38.127Z,85.80
2017-09-11T01:58:05.841Z,85.60
2017-09-11T02:00:33.509Z,85.70
2017-09-11T02:03:01.211Z,85.20
2017-09-11T02:05:28.871Z,85.20
2017-09-11T02:07:56.609Z,85.00
2017-09-11T02:10:25.042Z,85.80
2017-09-11T02:12:52.779Z,85.80
2017-09-11T02:15:20.439Z,85.90
2017-09-11T02:17:48.144Z,86.00
2017-09-11T02:20:15.807Z,86.10
2017-09-11T02:22:43.527Z,85.60
2017-09-11T02:25:11.196Z,85.60
2017-09-11T02:27:38.943Z,85.20
2017-09-11T02:30:06.612Z,85.00
2017-09-11T02:32:35.120Z,86.20
2017-09-11T02:35:02.796Z,85.90
2017-09-11T02:37:30.552Z,84.70
2017-09-11T02:39:58.259Z,85.40
2017-09-11T02:42:25.914Z,85.60
2017-09-11T02:44:53.912Z,85.50
2017-09-11T02:47:21.581Z,84.50
2017-09-11T02:49:49.289Z,84.60
2017-09-11T02:52:16.976Z,84.80
2017-09-11T02:54:44.675Z,84.60
2017-09-11T02:57:12.339Z,84.60
2017-09-11T02:59:40.816Z,83.70
2017-09-11T03:02:08.492Z,83.00
2017-09-11T03:04:36.960Z,83.40
2017-09-11T03:07:05.404Z,83.00
2017-09-11T03:09:33.113Z,83.00
2017-09-11T03:12:01.537Z,82.40
2017-09-11T03:14:29.236Z,82.40
2017-09-11T03:16:57.723Z,83.40
2017-09-11T03:19:26.243Z,82.60
2017-09-11T03:21:53.901Z,82.60
2017-09-11T03:24:21.622Z,82.50
2017-09-11T03:26:50.048Z,82.40
2017-09-11T03:29:17.759Z,82.40
2017-09-11T03:31:46.194Z,82.70
2017-09-11T03:34:13.901Z,82.70
2017-09-11T03:36:42.372Z,81.50
2017-09-11T03:39:10.794Z,81.50
2017-09-11T03:41:38.491Z,81.50
2017-09-11T03:44:06.167Z,81.20
2017-09-11T03:46:34.631Z,81.60
2017-09-11T03:49:02.287Z,81.50
2017-09-11T03:51:30.767Z,80.20
2017-09-11T03:53:58.423Z,80.20
2017-09-11T03:56:26.131Z,80.40
2017-09-11T03:58:53.792Z,80.20
2017-09-11T04:01:21.500Z,80.00
2017-09-11T04:03:49.179Z,80.40
2017-09-11T04:06:17.643Z,81.10
2017-09-11T04:08:45.296Z,81.10
2017-09-11T04:11:13.003Z,80.50
2017-09-11T04:13:40.666Z,80.50
2017-09-11T04:16:08.368Z,80.20
2017-09-11T04:18:36.064Z,81.00
2017-09-11T04:21:04.543Z,81.10
2017-09-11T04:23:32.967Z,81.00
2017-09-11T04:26:00.673Z,80.90
2017-09-11T04:28:29.096Z,81.20
2017-09-11T04:30:56.813Z,81.10
2017-09-11T04:33:25.236Z,81.20
2017-09-11T04:35:52.935Z,81.10
2017-09-11T04:38:20.595Z,80.70
2017-09-11T04:40:48.292Z,80.40
2017-09-11T04:43:16.035Z,80.50
2017-09-11T04:45:44.501Z,80.40
2017-09-11T04:48:12.980Z,80.10
2017-09-11T04:50:41.408Z,80.10
2017-09-11T04:53:09.115Z,80.10
2017-09-11T04:55:36.775Z,80.60
2017-09-11T04:58:04.480Z,80.80
2017-09-11T05:00:32.142Z,82.20
2017-09-11T05:02:59.839Z,80.90
2017-09-11T05:05:27.504Z,80.50
2017-09-11T05:07:55.217Z,80.40
2017-09-11T05:10:22.921Z,79.80
2017-09-11T05:12:50.622Z,80.00
2017-09-11T05:15:18.288Z,80.00
2017-09-11T05:17:46.191Z,79.80
2017-09-11T05:20:13.847Z,80.00
2017-09-11T05:22:41.560Z,80.10
2017-09-11T05:25:09.222Z,81.10
2017-09-11T05:27:36.936Z,81.40
2017-09-11T05:30:04.635Z,81.10
2017-09-11T05:32:33.119Z,81.90
2017-09-11T05:35:00.779Z,81.90
2017-09-11T05:37:28.500Z,81.60
2017-09-11T05:39:56.198Z,81.20
2017-09-11T05:42:23.851Z,81.60
2017-09-11T05:44:52.329Z,81.10
2017-09-11T05:47:20.748Z,80.20
2017-09-11T05:49:48.457Z,80.20
2017-09-11T05:52:16.879Z,80.20
2017-09-11T05:54:44.584Z,80.20
2017-09-11T05:57:12.247Z,80.20
2017-09-11T05:59:40.712Z,80.00
2017-09-11T06:02:08.372Z,79.90
2017-09-11T06:04:36.075Z,80.20
2017-09-11T06:07:03.732Z,80.20
2017-09-11T06:09:31.431Z,80.10
2017-09-11T06:11:59.094Z,81.00
2017-09-11T06:14:26.804Z,81.20
2017-09-11T06:16:54.495Z,81.50
2017-09-11T06:19:22.204Z,82.50
2017-09-11T06:21:50.636Z,85.20
2017-09-11T06:24:18.341Z,85.20
2017-09-11T06:26:46.778Z,87.80
2017-09-11T06:29:14.491Z,87.80
2017-09-11T06:31:42.961Z,90.20
2017-09-11T06:34:11.455Z,90.10
2017-09-11T06:36:39.887Z,90.70
2017-09-11T06:39:07.556Z,90.70
2017-09-11T06:41:35.267Z,90.60
2017-09-11T06:44:02.931Z,91.10
2017-09-11T06:46:30.640Z,91.50
2017-09-11T06:48:58.312Z,91.50
2017-09-11T06:51:26.906Z,91.60
2017-09-11T06:53:55.336Z,91.60
2017-09-11T06:56:23.112Z,91.70
2017-09-11T06:58:50.780Z,92.00
2017-09-11T07:01:18.484Z,92.10
2017-09-11T07:03:46.156Z,92.10
2017-09-11T07:06:13.864Z,91.90
2017-09-11T07:08:41.566Z,91.90
2017-09-11T07:11:09.271Z,91.90
2017-09-11T07:13:40.933Z,92.30
2017-09-11T07:16:08.628Z,92.30
2017-09-11T07:18:36.289Z,92.20
2017-09-11T07:21:04.540Z,92.20
2017-09-11T07:23:32.964Z,92.00
2017-09-11T07:26:00.671Z,91.90
2017-09-11T07:28:28.331Z,92.30
2017-09-11T07:30:56.035Z,92.00
2017-09-11T07:33:23.692Z,92.30
2017-09-11T07:35:51.363Z,91.90
2017-09-11T07:38:19.070Z,91.70
2017-09-11T07:40:46.738Z,91.80
2017-09-11T07:43:15.219Z,91.30
2017-09-11T07:45:43.639Z,91.40
2017-09-11T07:48:11.367Z,91.40
2017-09-11T07:50:39.037Z,91.40
2017-09-11T07:53:06.757Z,91.40
2017-09-11T07:55:34.411Z,91.30
2017-09-11T07:58:02.107Z,91.30
2017-09-11T08:00:29.763Z,91.40
2017-09-11T08:02:58.227Z,91.50
2017-09-11T08:05:26.664Z,91.40
2017-09-11T08:07:54.367Z,91.40
2017-09-11T08:10:22.792Z,90.90
2017-09-11T08:12:50.491Z,90.90
2017-09-11T08:15:18.139Z,90.70
2017-09-11T08:17:45.843Z,90.70
2017-09-11T08:20:13.519Z,90.10
2017-09-11T08:22:41.221Z,88.90
2017-09-11T08:25:08.891Z,89.70
2017-09-11T08:27:36.614Z,89.70
2017-09-11T08:30:04.276Z,88.40
2017-09-11T08:32:31.982Z,89.10
2017-09-11T08:35:00.408Z,90.10
2017-09-11T08:37:28.112Z,90.10
2017-09-11T08:39:56.579Z,89.60
2017-09-11T08:42:24.234Z,89.60
2017-09-11T08:44:51.939Z,89.40
2017-09-11T08:47:19.606Z,89.10
2017-09-11T08:49:47.307Z,89.40
2017-09-11T08:52:14.971Z,89.10
2017-09-11T08:54:42.677Z,88.90
2017-09-11T08:57:10.335Z,89.10
2017-09-11T08:59:38.039Z,89.80
2017-09-11T09:02:05.712Z,90.10
2017-09-11T09:04:33.413Z,89.30
2017-09-11T09:07:01.072Z,89.60
2017-09-11T09:09:28.777Z,89.60
2017-09-11T09:11:56.436Z,89.50
2017-09-11T09:14:24.135Z,89.70
2017-09-11T09:16:52.563Z,89.50
2017-09-11T09:19:20.264Z,89.40
2017-09-11T09:21:48.690Z,88.70
2017-09-11T09:24:16.346Z,88.60
2017-09-11T09:26:44.074Z,88.30
2017-09-11T09:29:12.593Z,86.00
2017-09-11T09:31:40.295Z,85.90
2017-09-11T09:34:08.015Z,86.10
2017-09-11T09:36:35.718Z,84.80
2017-09-11T09:39:03.492Z,86.00
2017-09-11T09:41:31.968Z,84.80
2017-09-11T09:44:00.399Z,85.10
2017-09-11T09:46:28.099Z,85.10
2017-09-11T09:48:56.524Z,84.40
2017-09-11T09:51:24.223Z,84.30
2017-09-11T09:53:51.883Z,85.00
2017-09-11T09:56:19.592Z,85.40
2017-09-11T09:58:47.262Z,85.10
2017-09-11T10:01:14.984Z,84.00
2017-09-11T10:03:43.404Z,84.20
2017-09-11T10:06:11.107Z,84.00
2017-09-11T10:08:38.779Z,84.00
2017-09-11T10:11:07.251Z,83.60
2017-09-11T10:13:35.688Z,82.00
2017-09-11T10:16:03.391Z,82.00
2017-09-11T10:18:31.819Z,83.00
2017-09-11T10:20:59.528Z,82.80
2017-09-11T10:23:27.951Z,83.00
2017-09-11T10:25:56.439Z,81.50
2017-09-11T10:28:24.095Z,81.60
2017-09-11T10:30:51.783Z,82.50
2017-09-11T10:33:19.512Z,83.50
2017-09-11T10:35:47.169Z,84.00
2017-09-11T10:38:14.880Z,83.40
2017-09-11T10:40:43.308Z,85.00
2017-09-11T10:43:11.068Z,85.00
2017-09-11T10:45:38.769Z,85.20
2017-09-11T10:48:06.484Z,85.20
2017-09-11T10:50:34.167Z,85.00
2017-09-11T10:53:01.877Z,84.00
2017-09-11T10:55:30.303Z,84.50
2017-09-11T10:57:58.015Z,84.50
2017-09-11T11:00:25.677Z,85.60
2017-09-11T11:02:53.397Z,86.20
2017-09-11T11:05:21.059Z,86.00
2017-09-11T11:07:48.771Z,86.50
2017-09-11T11:10:16.435Z,87.10
2017-09-11T11:12:44.139Z,85.90
2017-09-11T11:15:11.800Z,86.00
2017-09-11T11:17:39.519Z,85.60
2017-09-11T11:20:07.185Z,83.20
2017-09-11T11:22:34.851Z,82.30
2017-09-11T11:25:02.551Z,82.20
2017-09-11T11:27:30.211Z,78.60
2017-09-11T11:29:58.679Z,79.30
2017-09-11T11:32:26.338Z,79.20
2017-09-11T11:34:54.036Z,80.30
2017-09-11T11:37:21.691Z,81.50
2017-09-11T11:39:49.400Z,82.60
2017-09-11T11:42:17.057Z,81.90
2017-09-11T11:44:44.768Z,82.80
2017-09-11T11:47:12.443Z,82.60
2017-09-11T11:49:40.164Z,83.10
2017-09-11T11:52:07.828Z,83.30
2017-09-11T11:54:36.307Z,82.90
2017-09-11T11:57:04.751Z,82.10
2017-09-11T11:59:32.459Z,82.00
2017-09-11T12:02:00.881Z,82.60
2017-09-11T12:04:28.578Z,82.50
2017-09-11T12:06:56.241Z,80.00
2017-09-11T12:09:24.715Z,78.80
2017-09-11T12:11:52.381Z,78.70
2017-09-11T12:14:20.865Z,75.90
2017-09-11T12:16:49.292Z,73.90
2017-09-11T12:19:16.992Z,73.90
2017-09-11T12:21:44.659Z,74.50
2017-09-11T12:24:13.087Z,71.50
2017-09-11T12:26:40.793Z,71.40
2017-09-11T12:29:09.227Z,71.10
2017-09-11T12:31:36.931Z,71.10
2017-09-11T12:34:05.352Z,67.40
2017-09-11T12:36:33.118Z,67.40
2017-09-11T12:39:00.783Z,67.70
2017-09-11T12:41:28.486Z,67.70
2017-09-11T12:43:56.907Z,67.60
2017-09-11T12:46:24.612Z,67.60
2017-09-11T12:48:52.269Z,65.90
2017-09-11T12:51:19.975Z,65.10
2017-09-11T12:53:47.636Z,64.60
2017-09-11T12:56:15.344Z,64.80
2017-09-11T12:58:43.003Z,64.40
2017-09-11T13:01:10.736Z,64.70
2017-09-11T13:03:38.399Z,65.60
2017-09-11T13:06:06.099Z,65.80
2017-09-11T13:08:33.760Z,65.20
2017-09-11T13:11:02.244Z,72.30
2017-09-11T13:13:30.672Z,75.30
2017-09-11T13:15:58.367Z,75.20
2017-09-11T13:18:26.037Z,75.00
2017-09-11T13:20:54.512Z,77.40
2017-09-11T13:23:22.179Z,77.40
2017-09-11T13:25:50.668Z,78.80
2017-09-11T13:28:18.341Z,78.70
2017-09-11T13:30:45.996Z,77.50
2017-09-11T13:33:13.708Z,81.20
2017-09-11T13:35:41.409Z,81.60
2017-09-11T13:38:09.880Z,80.50
2017-09-11T13:40:38.314Z,80.60
2017-09-11T13:43:06.774Z,79.90
2017-09-11T13:45:34.435Z,79.60
2017-09-11T13:48:02.136Z,78.20
2017-09-11T13:50:29.795Z,82.60
2017-09-11T13:52:57.515Z,84.10
2017-09-11T13:55:25.176Z,84.70
2017-09-11T13:57:52.880Z,85.80
2017-09-11T14:00:20.544Z,88.80
2017-09-11T14:02:49.808Z,89.00
2017-09-11T14:05:17.548Z,88.90
2017-09-11T14:07:45.292Z,85.50
2017-09-11T14:10:13.004Z,81.00
2017-09-11T14:12:40.750Z,79.90
2017-09-11T14:15:08.410Z,79.80
2017-09-11T14:17:36.112Z,78.80
2017-09-11T14:20:04.594Z,78.70
2017-09-11T14:22:33.097Z,83.30
2017-09-11T14:25:00.799Z,83.20
2017-09-11T14:27:28.521Z,76.60
2017-09-11T14:29:56.193Z,76.90
2017-09-11T14:32:23.857Z,75.80
2017-09-11T14:34:51.600Z,77.30
2017-09-11T14:37:19.263Z,77.90
2017-09-11T14:39:46.969Z,78.00
2017-09-11T14:42:14.645Z,77.10
2017-09-11T14:44:43.152Z,74.80
2017-09-11T14:47:10.847Z,74.80
2017-09-11T14:49:38.543Z,74.30
2017-09-11T14:52:06.968Z,72.10
2017-09-11T14:54:34.672Z,72.10
2017-09-11T14:57:02.335Z,68.70
2017-09-11T14:59:30.814Z,71.50
2017-09-11T15:01:59.271Z,70.80
2017-09-11T15:04:26.979Z,70.80
2017-09-11T15:06:54.640Z,69.50
2017-09-11T15:09:22.361Z,72.00
2017-09-11T15:11:50.033Z,70.80
2017-09-11T15:14:18.498Z,72.10
2017-09-11T15:16:46.151Z,72.10
2017-09-11T15:19:13.856Z,71.30
2017-09-11T15:21:41.519Z,70.50
2017-09-11T15:24:09.224Z,70.20
2017-09-11T15:26:36.880Z,70.60
2017-09-11T15:29:04.579Z,69.30
2017-09-11T15:31:33.018Z,69.50
2017-09-11T15:34:00.720Z,69.50
2017-09-11T15:36:29.147Z,68.40
2017-09-11T15:38:56.857Z,68.30
2017-09-11T15:41:25.283Z,67.90
2017-09-11T15:43:52.994Z,67.90
2017-09-11T15:46:21.416Z,70.00
2017-09-11T15:48:49.072Z,70.00
2017-09-11T15:51:16.783Z,69.10
2017-09-11T15:53:45.207Z,70.20
2017-09-11T15:56:12.911Z,70.10
2017-09-11T15:58:40.576Z,71.00
2017-09-11T16:01:09.048Z,72.90
2017-09-11T16:03:36.728Z,72.90
2017-09-11T16:06:05.203Z,73.80
2017-09-11T16:08:33.628Z,72.70
2017-09-11T16:11:01.327Z,72.70
2017-09-11T16:13:29.757Z,75.00
2017-09-11T16:15:57.456Z,74.30
2017-09-11T16:18:25.124Z,74.70
2017-09-11T16:20:53.603Z,74.80
2017-09-11T16:23:22.036Z,75.50
2017-09-11T16:25:49.731Z,75.50
2017-09-11T16:28:17.419Z,75.60
2017-09-11T16:30:45.159Z,76.10
2017-09-11T16:33:13.588Z,74.40
2017-09-11T16:35:41.291Z,74.30
2017-09-11T16:38:08.956Z,74.20
2017-09-11T16:40:37.429Z,74.60
2017-09-11T16:43:05.092Z,74.50
2017-09-11T16:45:33.583Z,73.40
2017-09-11T16:48:02.003Z,73.90
2017-09-11T16:50:29.673Z,73.90
2017-09-11T16:52:58.143Z,74.70
2017-09-11T16:55:25.808Z,73.90
2017-09-11T16:57:53.513Z,74.10
2017-09-11T17:00:21.932Z,74.40
2017-09-11T17:02:49.676Z,74.40
2017-09-11T17:05:17.403Z,74.90
2017-09-11T17:07:45.124Z,76.20
2017-09-11T17:10:12.819Z,77.40
2017-09-11T17:12:40.557Z,77.50
2017-09-11T17:15:08.222Z,77.80
2017-09-11T17:17:35.923Z,79.10
2017-09-11T17:20:04.357Z,78.80
2017-09-11T17:22:32.060Z,78.70
2017-09-11T17:25:00.482Z,78.90
2017-09-11T17:27:28.185Z,78.90
2017-09-11T17:29:56.616Z,78.30
2017-09-11T17:32:24.315Z,78.40
2017-09-11T17:34:51.988Z,78.80
2017-09-11T17:37:20.496Z,78.20
2017-09-11T17:39:48.187Z,78.20
2017-09-11T17:42:15.932Z,79.00
2017-09-11T17:44:43.632Z,79.10
2017-09-11T17:47:11.380Z,79.30
2017-09-11T17:49:41.242Z,80.80
2017-09-11T17:52:09.027Z,80.40
2017-09-11T17:54:36.734Z,81.00
2017-09-11T17:57:05.155Z,81.10
2017-09-11T17:59:32.868Z,81.00
2017-09-11T18:02:01.301Z,80.90
2017-09-11T18:04:29.005Z,80.80
2017-09-11T18:06:56.667Z,81.30
2017-09-11T18:09:25.140Z,83.40
2017-09-11T18:11:52.920Z,83.30
2017-09-11T18:14:21.428Z,84.70
2017-09-11T18:16:49.119Z,84.70
2017-09-11T18:19:16.836Z,84.80
2017-09-11T18:21:44.501Z,84.70
2017-09-11T18:24:12.208Z,85.00
2017-09-11T18:26:39.976Z,85.10
2017-09-11T18:29:07.682Z,85.10
2017-09-11T18:31:35.351Z,84.50
2017-09-11T18:34:03.068Z,84.70
2017-09-11T18:36:31.494Z,85.60
2017-09-11T18:38:59.194Z,85.00
2017-09-11T18:41:26.860Z,84.80
2017-09-11T18:43:54.605Z,84.60
2017-09-11T18:46:22.269Z,84.80
2017-09-11T18:48:49.972Z,86.20
2017-09-11T18:51:17.638Z,85.20
2017-09-11T18:53:45.294Z,84.20
2017-09-11T18:56:13.007Z,84.00
2017-09-11T18:58:40.677Z,84.10
2017-09-11T19:01:08.380Z,84.00
2017-09-11T19:03:36.044Z,84.50
2017-09-11T19:06:03.761Z,84.30
2017-09-11T19:08:32.195Z,84.20
2017-09-11T19:10:59.896Z,84.20
2017-09-11T19:13:27.556Z,84.00
2017-09-11T19:15:56.035Z,83.60
2017-09-11T19:18:23.691Z,83.50
2017-09-11T19:20:51.401Z,83.10
2017-09-11T19:23:19.069Z,82.60
2017-09-11T19:25:46.771Z,82.80
2017-09-11T19:28:14.431Z,83.10
2017-09-11T19:30:42.138Z,83.20
2017-09-11T19:33:09.796Z,83.00
2017-09-11T19:35:37.515Z,83.10
2017-09-11T19:38:05.944Z,83.30
2017-09-11T19:40:33.656Z,83.30
2017-09-11T19:43:02.132Z,84.50
2017-09-11T19:45:30.639Z,84.10
2017-09-11T19:47:58.341Z,84.00
2017-09-11T19:50:26.100Z,84.00
2017-09-11T19:52:53.776Z,83.80
2017-09-11T19:55:21.483Z,83.90
2017-09-11T19:57:49.147Z,84.10
2017-09-11T20:00:27.411Z,84.40
2017-09-11T20:02:55.076Z,84.60
2017-09-11T20:05:23.548Z,84.80
2017-09-11T20:07:51.217Z,84.70
2017-09-11T20:10:19.692Z,85.60
2017-09-11T20:12:48.204Z,85.70
2017-09-11T20:15:15.912Z,85.60
2017-09-11T20:17:43.619Z,85.40
2017-09-11T20:20:11.284Z,86.10
2017-09-11T20:22:38.997Z,86.30
2017-09-11T20:25:06.690Z,86.60
2017-09-11T20:27:34.399Z,87.00
2017-09-11T20:30:02.060Z,86.90
2017-09-11T20:32:29.769Z,87.50
2017-09-11T20:34:58.208Z,88.20
2017-09-11T20:37:25.920Z,87.60
2017-09-11T20:39:53.601Z,87.30
2017-09-11T20:42:21.307Z,87.80
2017-09-11T20:44:48.967Z,87.70
2017-09-11T20:47:16.692Z,87.80
2017-09-11T20:49:44.391Z,87.60
2017-09-11T20:52:12.869Z,86.10
2017-09-11T20:54:41.309Z,87.50
2017-09-11T20:57:09.012Z,86.80
2017-09-11T20:59:37.467Z,86.00
2017-09-11T21:02:05.172Z,86.00
2017-09-11T21:04:32.831Z,86.00
2017-09-11T21:07:00.563Z,86.00
2017-09-11T21:09:28.991Z,85.80
2017-09-11T21:11:56.703Z,85.80
2017-09-11T21:14:25.224Z,85.70
2017-09-11T21:16:52.919Z,85.60
2017-09-11T21:19:20.664Z,86.20
2017-09-11T21:21:48.327Z,85.70
2017-09-11T21:24:16.041Z,85.50
2017-09-11T21:26:43.700Z,84.80
2017-09-11T21:29:12.177Z,85.00
2017-09-11T21:31:39.831Z,84.90
2017-09-11T21:34:08.318Z,84.80
2017-09-11T21:36:36.010Z,84.70
2017-09-11T21:39:03.779Z,84.70
2017-09-11T21:41:31.442Z,83.60
2017-09-11T21:43:59.147Z,84.50
2017-09-11T21:46:27.568Z,83.00
2017-09-11T21:48:55.308Z,82.90
2017-09-11T21:51:23.813Z,82.60
2017-09-11T21:53:51.516Z,82.40
2017-09-11T21:56:19.957Z,82.40
2017-09-11T21:58:48.440Z,81.70
2017-09-11T22:01:16.101Z,82.20
2017-09-11T22:03:43.803Z,81.60
2017-09-11T22:06:12.228Z,81.50
2017-09-11T22:08:39.944Z,81.40
2017-09-11T22:11:08.369Z,81.20
2017-09-11T22:13:36.088Z,81.20
2017-09-11T22:16:03.754Z,81.60
2017-09-11T22:18:31.427Z,81.70
2017-09-11T22:20:59.131Z,81.00
2017-09-11T22:23:26.791Z,80.80
2017-09-11T22:25:54.496Z,81.00
2017-09-11T22:28:22.164Z,81.00
2017-09-11T22:30:49.881Z,80.90
2017-09-11T22:33:17.540Z,81.30
2017-09-11T22:35:46.014Z,81.00
2017-09-11T22:38:13.683Z,80.90
2017-09-11T22:40:42.288Z,80.80
2017-09-11T22:43:09.944Z,80.80
2017-09-11T22:45:37.646Z,80.80
2017-09-11T22:48:05.311Z,80.90
2017-09-11T22:50:33.065Z,80.40
2017-09-11T22:53:00.741Z,80.60
2017-09-11T22:55:28.452Z,81.10
2017-09-11T22:57:56.115Z,80.80
2017-09-11T23:00:23.825Z,80.40
2017-09-11T23:02:51.487Z,80.20
2017-09-11T23:05:19.183Z,80.30
2017-09-11T23:07:46.851Z,80.20
2017-09-11T23:10:14.575Z,80.60
2017-09-11T23:12:42.244Z,80.20
2017-09-11T23:15:10.736Z,79.80
2017-09-11T23:17:38.403Z,79.80
2017-09-11T23:20:06.083Z,79.70
2017-09-11T23:22:33.784Z,79.80
2017-09-11T23:25:01.453Z,80.20
2017-09-11T23:27:29.930Z,80.60
2017-09-11T23:29:58.387Z,80.00
2017-09-11T23:32:26.092Z,80.00
2017-09-11T23:34:53.752Z,80.20
2017-09-11T23:37:21.461Z,80.10
2017-09-11T23:39:49.122Z,80.80
2017-09-11T23:42:16.829Z,80.80
2017-09-11T23:44:44.487Z,80.10
2017-09-11T23:47:12.199Z,80.30
2017-09-11T23:49:39.863Z,80.20
2017-09-11T23:52:07.575Z,80.20
2017-09-11T23:54:35.275Z,81.30
2017-09-11T23:57:02.977Z,80.60
2017-09-11T23:59:31.416Z,80.80
